Aviation Digital Data Service (ADDS)

Output produced by METARs form (1206 UTC 25 June 2017)
found at http://aviationweather.gov/adds/metars/
 
KIAG 251120Z 2512/2612 24010KT P6SM SKC 
     FM251600 24019G26KT P6SM VCTS BKN060CB 
     FM260100 25008KT P6SM VCSH BKN060 
     FM260300 26008KT P6SM BKN045 
     FM261000 26006KT P6SM BKN030